16CA weather

Police Pistol Range Heliport
San Francisco, California, United States

Public forecast

Using degrees Fahrenheit for public forecast. Weather courtesy of forecast.io.

Closest aviation weather report (METAR) to Police Pistol Range Heliport

Closest report is San Francisco International Airport, 8.4 nm (15.6 km) SE. Retrieved 2019/10/24 02:56 UTC (6 minutes ago):

KSFO 240256Z 27007KT 10SM CLR 23/07 A2991 RMK AO2 SLP127 T02280067 55001

Closest aviation forecast (TAF) to Police Pistol Range Heliport

Closest forecast is San Francisco International Airport, 8.4 nm (15.6 km) SE. Retrieved 2019-10-24 00:22 UTC (3 hours ago):

TAF KSFO 232320Z 2400/2506 30010KT P6SM SKC FM240800 03007KT P6SM SKC FM241000 06007G15KT P6SM SKC FM241800 04005KT P6SM SKC FM242300 VRB05KT P6SM SKC